sensor_id;sensor_type;location;lat;lon;timestamp;P1;durP1;ratioP1;P2;durP2;ratioP2
12072;SDS011;6098;49.004;8.372;2023-09-30T00:04:41;4.11;;;2.80;;
12072;SDS011;6098;49.004;8.372;2023-09-30T00:19:32;3.33;;;2.80;;
12072;SDS011;6098;49.004;8.372;2023-09-30T00:34:24;4.19;;;2.01;;
12072;SDS011;6098;49.004;8.372;2023-09-30T00:49:16;3.51;;;2.27;;
12072;SDS011;6098;49.004;8.372;2023-09-30T01:04:07;3.21;;;1.99;;
12072;SDS011;6098;49.004;8.372;2023-09-30T01:19:00;5.61;;;3.58;;
12072;SDS011;6098;49.004;8.372;2023-09-30T01:33:52;3.04;;;1.91;;
12072;SDS011;6098;49.004;8.372;2023-09-30T01:48:45;3.47;;;2.18;;
12072;SDS011;6098;49.004;8.372;2023-09-30T02:03:41;3.00;;;1.79;;
12072;SDS011;6098;49.004;8.372;2023-09-30T02:18:32;2.76;;;1.99;;
12072;SDS011;6098;49.004;8.372;2023-09-30T02:33:35;2.37;;;1.96;;
12072;SDS011;6098;49.004;8.372;2023-09-30T02:48:29;4.70;;;2.70;;
12072;SDS011;6098;49.004;8.372;2023-09-30T03:03:20;4.14;;;2.95;;
12072;SDS011;6098;49.004;8.372;2023-09-30T03:18:13;5.75;;;3.09;;
12072;SDS011;6098;49.004;8.372;2023-09-30T03:33:05;4.88;;;3.26;;
12072;SDS011;6098;49.004;8.372;2023-09-30T03:47:57;4.69;;;2.69;;
12072;SDS011;6098;49.004;8.372;2023-09-30T04:02:50;4.18;;;2.50;;
12072;SDS011;6098;49.004;8.372;2023-09-30T04:17:41;5.97;;;3.12;;
12072;SDS011;6098;49.004;8.372;2023-09-30T04:32:33;4.43;;;2.96;;
12072;SDS011;6098;49.004;8.372;2023-09-30T04:47:25;4.54;;;3.53;;
12072;SDS011;6098;49.004;8.372;2023-09-30T05:02:17;3.96;;;3.19;;
12072;SDS011;6098;49.004;8.372;2023-09-30T05:17:09;5.06;;;3.54;;
12072;SDS011;6098;49.004;8.372;2023-09-30T05:32:01;6.44;;;4.08;;
12072;SDS011;6098;49.004;8.372;2023-09-30T05:46:53;6.31;;;3.82;;
12072;SDS011;6098;49.004;8.372;2023-09-30T06:01:44;7.39;;;4.10;;
12072;SDS011;6098;49.004;8.372;2023-09-30T06:16:36;6.33;;;3.78;;
12072;SDS011;6098;49.004;8.372;2023-09-30T06:31:28;5.20;;;3.59;;
12072;SDS011;6098;49.004;8.372;2023-09-30T06:46:19;5.53;;;4.23;;
12072;SDS011;6098;49.004;8.372;2023-09-30T07:01:14;7.74;;;4.42;;
12072;SDS011;6098;49.004;8.372;2023-09-30T07:16:04;8.36;;;4.97;;
12072;SDS011;6098;49.004;8.372;2023-09-30T07:30:57;9.53;;;5.69;;
12072;SDS011;6098;49.004;8.372;2023-09-30T07:45:49;10.94;;;6.10;;
12072;SDS011;6098;49.004;8.372;2023-09-30T08:00:42;6.94;;;4.78;;
12072;SDS011;6098;49.004;8.372;2023-09-30T08:15:35;10.00;;;6.06;;
12072;SDS011;6098;49.004;8.372;2023-09-30T08:30:28;11.46;;;5.84;;
12072;SDS011;6098;49.004;8.372;2023-09-30T08:45:21;10.44;;;5.82;;
12072;SDS011;6098;49.004;8.372;2023-09-30T09:00:13;8.10;;;5.52;;
12072;SDS011;6098;49.004;8.372;2023-09-30T09:15:05;10.69;;;5.36;;
12072;SDS011;6098;49.004;8.372;2023-09-30T09:45:12;6.61;;;4.07;;
12072;SDS011;6098;49.004;8.372;2023-09-30T10:00:06;4.36;;;3.36;;
12072;SDS011;6098;49.004;8.372;2023-09-30T10:15:00;5.55;;;3.66;;
12072;SDS011;6098;49.004;8.372;2023-09-30T11:00:37;5.34;;;3.54;;
12072;SDS011;6098;49.004;8.372;2023-09-30T11:15:43;5.16;;;3.26;;
12072;SDS011;6098;49.004;8.372;2023-09-30T11:30:53;5.20;;;3.45;;
12072;SDS011;6098;49.004;8.372;2023-09-30T11:45:47;6.47;;;3.30;;
12072;SDS011;6098;49.004;8.372;2023-09-30T12:00:41;3.66;;;2.56;;
12072;SDS011;6098;49.004;8.372;2023-09-30T12:15:32;6.29;;;3.16;;
12072;SDS011;6098;49.004;8.372;2023-09-30T12:30:25;8.79;;;3.25;;
12072;SDS011;6098;49.004;8.372;2023-09-30T12:45:17;6.56;;;3.19;;
12072;SDS011;6098;49.004;8.372;2023-09-30T13:00:10;6.28;;;2.89;;
12072;SDS011;6098;49.004;8.372;2023-09-30T13:15:06;5.51;;;2.90;;
12072;SDS011;6098;49.004;8.372;2023-09-30T13:29:59;6.36;;;3.29;;
12072;SDS011;6098;49.004;8.372;2023-09-30T13:44:52;6.37;;;3.80;;
12072;SDS011;6098;49.004;8.372;2023-09-30T13:59:44;10.04;;;3.95;;
12072;SDS011;6098;49.004;8.372;2023-09-30T14:14:35;7.84;;;3.71;;
12072;SDS011;6098;49.004;8.372;2023-09-30T14:29:28;7.11;;;3.85;;
12072;SDS011;6098;49.004;8.372;2023-09-30T14:44:20;8.24;;;4.14;;
12072;SDS011;6098;49.004;8.372;2023-09-30T14:59:12;6.79;;;3.74;;
12072;SDS011;6098;49.004;8.372;2023-09-30T15:14:05;6.34;;;3.76;;
12072;SDS011;6098;49.004;8.372;2023-09-30T15:28:57;7.51;;;4.15;;
12072;SDS011;6098;49.004;8.372;2023-09-30T15:43:50;9.24;;;4.15;;
12072;SDS011;6098;49.004;8.372;2023-09-30T15:58:42;7.09;;;4.07;;
12072;SDS011;6098;49.004;8.372;2023-09-30T16:13:33;6.94;;;4.07;;
12072;SDS011;6098;49.004;8.372;2023-09-30T16:28:26;6.78;;;3.69;;
12072;SDS011;6098;49.004;8.372;2023-09-30T16:43:19;5.97;;;3.83;;
12072;SDS011;6098;49.004;8.372;2023-09-30T16:58:11;7.62;;;4.10;;
12072;SDS011;6098;49.004;8.372;2023-09-30T17:13:04;6.51;;;4.43;;
12072;SDS011;6098;49.004;8.372;2023-09-30T17:27:57;7.74;;;4.81;;
12072;SDS011;6098;49.004;8.372;2023-09-30T17:42:49;9.52;;;4.62;;
12072;SDS011;6098;49.004;8.372;2023-09-30T17:57:41;7.91;;;4.78;;
12072;SDS011;6098;49.004;8.372;2023-09-30T18:12:34;9.79;;;4.84;;
12072;SDS011;6098;49.004;8.372;2023-09-30T18:27:25;9.81;;;5.93;;
12072;SDS011;6098;49.004;8.372;2023-09-30T18:42:18;12.14;;;7.12;;
12072;SDS011;6098;49.004;8.372;2023-09-30T18:57:14;10.86;;;6.74;;
12072;SDS011;6098;49.004;8.372;2023-09-30T19:12:05;10.91;;;7.05;;
12072;SDS011;6098;49.004;8.372;2023-09-30T19:26:58;10.35;;;6.66;;
12072;SDS011;6098;49.004;8.372;2023-09-30T19:41:50;10.21;;;6.79;;
12072;SDS011;6098;49.004;8.372;2023-09-30T19:56:42;12.42;;;7.82;;
12072;SDS011;6098;49.004;8.372;2023-09-30T20:11:36;14.68;;;8.43;;
12072;SDS011;6098;49.004;8.372;2023-09-30T20:26:28;11.38;;;7.51;;
12072;SDS011;6098;49.004;8.372;2023-09-30T20:41:20;12.41;;;7.07;;
12072;SDS011;6098;49.004;8.372;2023-09-30T20:56:11;11.51;;;8.12;;
12072;SDS011;6098;49.004;8.372;2023-09-30T21:11:06;13.07;;;9.06;;
